createdAt,value
2022-08-27T00:02:09.630Z,100.00
2022-08-27T00:04:38.885Z,100.00
2022-08-27T00:07:08.995Z,100.00
2022-08-27T00:09:38.247Z,100.00
2022-08-27T00:12:07.029Z,100.00
2022-08-27T00:14:36.696Z,100.00
2022-08-27T00:17:06.726Z,100.00
2022-08-27T00:19:36.731Z,100.00
2022-08-27T00:22:06.002Z,100.00
2022-08-27T00:24:34.736Z,100.00
2022-08-27T00:27:06.466Z,100.00
2022-08-27T00:29:36.487Z,100.00
2022-08-27T00:32:04.840Z,100.00
2022-08-27T00:34:32.967Z,100.00
2022-08-27T00:37:00.932Z,100.00
2022-08-27T00:39:29.062Z,100.00
2022-08-27T00:41:57.144Z,100.00
2022-08-27T00:44:25.223Z,100.00
2022-08-27T00:46:57.062Z,100.00
2022-08-27T00:49:32.128Z,100.00
2022-08-27T00:52:11.993Z,100.00
2022-08-27T00:54:41.346Z,100.00
2022-08-27T00:57:09.562Z,100.00
2022-08-27T00:59:38.241Z,100.00
2022-08-27T01:02:21.475Z,100.00
2022-08-27T01:05:03.220Z,100.00
2022-08-27T01:07:36.474Z,100.00
2022-08-27T01:10:07.361Z,100.00
2022-08-27T01:12:36.321Z,100.00
2022-08-27T01:15:10.980Z,100.00
2022-08-27T01:17:43.671Z,100.00
2022-08-27T01:20:20.605Z,100.00
2022-08-27T01:23:01.955Z,100.00
2022-08-27T01:25:30.972Z,100.00
2022-08-27T01:28:01.180Z,100.00
2022-08-27T01:30:29.359Z,100.00
2022-08-27T01:32:57.871Z,100.00
2022-08-27T01:35:26.242Z,100.00
2022-08-27T01:37:57.231Z,100.00
2022-08-27T01:40:25.748Z,100.00
2022-08-27T01:42:56.791Z,100.00
2022-08-27T01:45:29.024Z,100.00
2022-08-27T01:47:59.015Z,100.00
2022-08-27T01:50:32.008Z,100.00
2022-08-27T01:53:14.067Z,100.00
2022-08-27T01:55:47.678Z,100.00
2022-08-27T01:58:18.683Z,100.00
2022-08-27T02:00:54.713Z,100.00
2022-08-27T02:03:25.274Z,100.00
2022-08-27T02:05:54.662Z,100.00
2022-08-27T02:08:22.922Z,100.00
2022-08-27T02:10:51.762Z,100.00
2022-08-27T02:13:19.877Z,100.00
2022-08-27T02:15:47.996Z,100.00
2022-08-27T02:18:16.615Z,100.00
2022-08-27T02:20:46.486Z,100.00
2022-08-27T02:23:15.785Z,100.00
2022-08-27T02:25:45.435Z,100.00
2022-08-27T02:28:14.161Z,100.00
2022-08-27T02:30:42.204Z,100.00
2022-08-27T02:33:10.506Z,100.00
2022-08-27T02:35:40.699Z,100.00
2022-08-27T02:38:08.799Z,100.00
2022-08-27T02:40:37.684Z,100.00
2022-08-27T02:43:06.890Z,100.00
2022-08-27T02:45:37.599Z,100.00
2022-08-27T02:48:07.918Z,100.00
2022-08-27T02:50:36.941Z,100.00
2022-08-27T02:53:06.372Z,100.00
2022-08-27T02:55:34.428Z,100.00
2022-08-27T02:58:05.225Z,100.00
2022-08-27T03:00:33.672Z,100.00
2022-08-27T03:03:02.929Z,100.00
2022-08-27T03:05:31.038Z,100.00
2022-08-27T03:07:59.963Z,100.00
2022-08-27T03:10:28.024Z,100.00
2022-08-27T03:12:57.366Z,100.00
2022-08-27T03:15:25.494Z,100.00
2022-08-27T03:18:12.173Z,100.00
2022-08-27T03:20:44.623Z,100.00
2022-08-27T03:23:14.844Z,100.00
2022-08-27T03:25:51.618Z,100.00
2022-08-27T03:28:26.154Z,100.00
2022-08-27T03:31:01.424Z,100.00
2022-08-27T03:33:35.917Z,100.00
2022-08-27T03:36:06.383Z,100.00
2022-08-27T03:38:35.927Z,100.00
2022-08-27T03:41:05.989Z,100.00
2022-08-27T03:43:34.101Z,100.00
2022-08-27T03:46:02.597Z,100.00
2022-08-27T03:48:32.292Z,100.00
2022-08-27T03:51:08.731Z,100.00
2022-08-27T03:53:38.745Z,100.00
2022-08-27T03:56:08.339Z,100.00
2022-08-27T03:58:37.764Z,100.00
2022-08-27T04:01:08.134Z,100.00
2022-08-27T04:03:36.462Z,100.00
2022-08-27T04:06:04.773Z,100.00
2022-08-27T04:08:33.238Z,100.00
2022-08-27T04:11:06.139Z,100.00
2022-08-27T04:13:34.187Z,100.00
2022-08-27T04:16:02.219Z,100.00
2022-08-27T04:18:30.425Z,100.00
2022-08-27T04:20:58.642Z,100.00
2022-08-27T04:23:26.761Z,100.00
2022-08-27T04:25:54.722Z,100.00
2022-08-27T04:28:24.982Z,100.00
2022-08-27T04:30:52.964Z,100.00
2022-08-27T04:33:21.071Z,100.00
2022-08-27T04:36:07.857Z,100.00
2022-08-27T04:38:36.768Z,100.00
2022-08-27T04:41:27.646Z,100.00
2022-08-27T04:43:57.990Z,100.00
2022-08-27T04:46:32.239Z,100.00
2022-08-27T04:49:03.743Z,100.00
2022-08-27T04:51:40.155Z,100.00
2022-08-27T04:54:09.527Z,100.00
2022-08-27T04:56:39.172Z,100.00
2022-08-27T04:59:10.115Z,100.00
2022-08-27T05:01:40.508Z,100.00
2022-08-27T05:04:11.154Z,100.00
2022-08-27T05:06:39.111Z,100.00
2022-08-27T05:09:07.087Z,100.00
2022-08-27T05:11:35.465Z,100.00
2022-08-27T05:14:08.890Z,100.00
2022-08-27T05:16:39.226Z,100.00
2022-08-27T05:19:10.445Z,100.00
2022-08-27T05:21:40.270Z,100.00
2022-08-27T05:24:08.455Z,100.00
2022-08-27T05:26:37.566Z,100.00
2022-08-27T05:29:06.764Z,100.00
2022-08-27T05:31:35.627Z,100.00
2022-08-27T05:34:10.583Z,100.00
2022-08-27T05:36:48.566Z,100.00
2022-08-27T05:39:17.621Z,100.00
2022-08-27T05:41:45.782Z,100.00
2022-08-27T05:47:03.850Z,100.00
2022-08-27T05:49:32.013Z,100.00
2022-08-27T05:52:00.079Z,100.00
2022-08-27T05:54:28.155Z,100.00
2022-08-27T05:56:56.117Z,100.00
2022-08-27T05:59:42.558Z,100.00
2022-08-27T06:02:11.161Z,100.00
2022-08-27T06:04:39.395Z,100.00
2022-08-27T06:07:10.713Z,100.00
2022-08-27T06:09:40.084Z,100.00
2022-08-27T06:12:08.500Z,100.00
2022-08-27T06:14:38.308Z,100.00
2022-08-27T06:17:06.631Z,100.00
2022-08-27T06:19:36.708Z,100.00
2022-08-27T06:22:10.016Z,100.00
2022-08-27T06:24:41.999Z,100.00
2022-08-27T06:27:16.352Z,100.00
2022-08-27T06:29:45.171Z,100.00
2022-08-27T06:32:14.953Z,100.00
2022-08-27T06:34:43.263Z,100.00
2022-08-27T06:37:11.512Z,100.00
2022-08-27T06:39:42.124Z,100.00
2022-08-27T06:42:12.641Z,100.00
2022-08-27T06:44:42.118Z,100.00
2022-08-27T06:47:11.002Z,100.00
2022-08-27T06:49:41.234Z,100.00
2022-08-27T06:52:09.463Z,100.00
2022-08-27T06:54:40.338Z,100.00
2022-08-27T06:57:09.039Z,100.00
2022-08-27T06:59:38.699Z,100.00
2022-08-27T07:02:08.942Z,100.00
2022-08-27T07:04:37.016Z,100.00
2022-08-27T07:07:05.173Z,100.00
2022-08-27T07:09:34.228Z,100.00
2022-08-27T07:12:03.558Z,100.00
2022-08-27T07:14:37.551Z,100.00
2022-08-27T07:17:09.785Z,100.00
2022-08-27T07:19:41.115Z,100.00
2022-08-27T07:22:12.482Z,100.00
2022-08-27T07:24:41.279Z,100.00
2022-08-27T07:27:09.571Z,100.00
2022-08-27T07:29:38.176Z,100.00
2022-08-27T07:32:07.047Z,100.00
2022-08-27T07:34:35.405Z,100.00
2022-08-27T07:37:05.020Z,100.00
2022-08-27T07:39:34.371Z,100.00
2022-08-27T07:42:20.978Z,100.00
2022-08-27T07:44:50.137Z,100.00
2022-08-27T07:47:18.805Z,100.00
2022-08-27T07:49:46.928Z,100.00
2022-08-27T07:52:17.578Z,100.00
2022-08-27T07:54:46.384Z,100.00
2022-08-27T07:57:14.441Z,100.00
2022-08-27T07:59:43.674Z,100.00
2022-08-27T08:02:12.884Z,100.00
2022-08-27T08:04:41.224Z,100.00
2022-08-27T08:07:09.712Z,100.00
2022-08-27T08:09:39.902Z,100.00
2022-08-27T08:12:08.415Z,100.00
2022-08-27T08:14:37.659Z,100.00
2022-08-27T08:17:06.402Z,100.00
2022-08-27T08:19:40.443Z,100.00
2022-08-27T08:22:10.973Z,100.00
2022-08-27T08:24:39.888Z,100.00
2022-08-27T08:27:08.262Z,100.00
2022-08-27T08:29:36.917Z,100.00
2022-08-27T08:32:07.080Z,100.00
2022-08-27T08:34:36.186Z,99.81
2022-08-27T08:37:06.909Z,98.78
2022-08-27T08:39:37.152Z,97.64
2022-08-27T08:42:08.370Z,98.06
2022-08-27T08:44:39.343Z,97.01
2022-08-27T08:47:17.327Z,96.91
2022-08-27T08:50:08.424Z,95.40
2022-08-27T08:52:42.935Z,98.99
2022-08-27T08:55:29.273Z,94.12
2022-08-27T08:58:16.959Z,90.31
2022-08-27T09:00:49.019Z,90.62
2022-08-27T09:03:17.457Z,88.63
2022-08-27T09:06:01.869Z,90.16
2022-08-27T09:08:41.333Z,88.11
2022-08-27T09:11:13.300Z,86.22
2022-08-27T09:13:48.306Z,88.39
2022-08-27T09:16:16.730Z,84.65
2022-08-27T09:18:45.871Z,84.50
2022-08-27T09:21:33.144Z,84.71
2022-08-27T09:24:04.567Z,83.52
2022-08-27T09:26:38.413Z,83.94
2022-08-27T09:29:17.238Z,82.03
2022-08-27T09:32:05.310Z,80.20
2022-08-27T09:34:37.401Z,78.35
2022-08-27T09:37:15.626Z,80.80
2022-08-27T09:39:53.938Z,82.28
2022-08-27T09:42:53.347Z,82.51
2022-08-27T09:45:36.115Z,78.86
2022-08-27T09:48:07.763Z,77.90
2022-08-27T09:50:47.820Z,74.91
2022-08-27T09:53:25.550Z,70.67
2022-08-27T09:56:03.165Z,69.07
2022-08-27T09:58:35.620Z,67.83
2022-08-27T10:01:05.680Z,66.92
2022-08-27T10:03:34.309Z,64.65
2022-08-27T10:06:02.572Z,62.06
2022-08-27T10:08:38.531Z,59.39
2022-08-27T10:11:29.800Z,59.07
2022-08-27T10:14:24.858Z,57.29
2022-08-27T10:17:05.378Z,56.29
2022-08-27T10:20:09.202Z,55.79
2022-08-27T10:22:58.124Z,52.62
2022-08-27T10:25:26.555Z,51.48
2022-08-27T10:28:09.740Z,53.03
2022-08-27T10:30:59.803Z,52.82
2022-08-27T10:33:44.749Z,54.74
2022-08-27T10:36:32.210Z,52.42
2022-08-27T10:39:24.269Z,50.31
2022-08-27T10:41:59.620Z,48.47
2022-08-27T10:44:45.545Z,46.46
2022-08-27T10:47:22.799Z,43.41
2022-08-27T10:50:04.439Z,42.11
2022-08-27T10:52:51.664Z,42.67
2022-08-27T10:55:24.332Z,43.76
2022-08-27T10:58:21.178Z,44.41
2022-08-27T11:00:56.686Z,45.14
2022-08-27T11:03:37.770Z,40.07
2022-08-27T11:06:45.958Z,41.04
2022-08-27T11:09:22.057Z,39.58
2022-08-27T11:12:14.238Z,41.05
2022-08-27T11:14:52.625Z,38.42
2022-08-27T11:17:46.315Z,36.80
2022-08-27T11:20:22.419Z,34.03
2022-08-27T11:23:04.710Z,33.37
2022-08-27T11:25:39.510Z,34.09
2022-08-27T11:28:11.755Z,33.88
2022-08-27T11:30:45.848Z,32.92
2022-08-27T11:33:21.072Z,32.21
2022-08-27T11:36:20.481Z,31.94
2022-08-27T11:39:40.965Z,30.88
2022-08-27T11:42:19.323Z,30.53
2022-08-27T11:44:50.160Z,30.84
2022-08-27T11:47:26.526Z,30.82
2022-08-27T11:50:04.572Z,30.53
2022-08-27T11:52:38.387Z,30.09
2022-08-27T11:55:21.716Z,29.76
2022-08-27T11:58:04.687Z,29.90
2022-08-27T12:00:39.566Z,29.67
2022-08-27T12:03:10.429Z,29.32
2022-08-27T12:05:49.147Z,28.27
2022-08-27T12:08:23.067Z,27.44
2022-08-27T12:11:04.408Z,27.44
2022-08-27T12:14:00.959Z,27.12
2022-08-27T12:16:48.138Z,28.27
2022-08-27T12:19:49.791Z,28.51
2022-08-27T12:22:30.300Z,28.40
2022-08-27T12:24:59.897Z,27.63
2022-08-27T12:27:34.888Z,27.11
2022-08-27T12:30:30.276Z,26.30
2022-08-27T12:33:04.880Z,25.36
2022-08-27T12:35:50.767Z,25.33
2022-08-27T12:38:35.314Z,25.46
2022-08-27T12:41:09.164Z,25.62
2022-08-27T12:43:42.201Z,25.74
2022-08-27T12:46:20.141Z,26.33
2022-08-27T12:49:09.945Z,25.61
2022-08-27T12:51:49.330Z,24.60
2022-08-27T12:54:58.185Z,23.53
2022-08-27T12:57:58.212Z,22.97
2022-08-27T13:00:36.069Z,22.74
2022-08-27T13:03:14.280Z,22.96
2022-08-27T13:05:50.953Z,22.70
2022-08-27T13:08:22.128Z,22.72
2022-08-27T13:10:54.515Z,23.35
2022-08-27T13:13:25.794Z,23.50
2022-08-27T13:15:57.156Z,23.67
2022-08-27T13:18:30.052Z,24.10
2022-08-27T13:21:04.658Z,24.03
2022-08-27T13:23:33.793Z,23.93
2022-08-27T13:26:09.099Z,23.39
2022-08-27T13:28:40.812Z,23.66
2022-08-27T13:31:11.349Z,23.44
2022-08-27T13:33:41.312Z,22.74
2022-08-27T13:36:10.485Z,22.27
2022-08-27T13:38:47.891Z,22.16
2022-08-27T13:41:27.723Z,22.11
2022-08-27T13:43:59.558Z,21.92
2022-08-27T13:46:32.516Z,21.71
2022-08-27T13:49:01.407Z,21.66
2022-08-27T13:51:33.236Z,21.99
2022-08-27T13:54:13.686Z,21.70
2022-08-27T13:56:51.428Z,21.51
2022-08-27T13:59:22.218Z,21.33
2022-08-27T14:02:02.661Z,21.30
2022-08-27T14:04:39.552Z,21.19
2022-08-27T14:07:17.711Z,20.69
2022-08-27T14:10:08.475Z,20.94
2022-08-27T14:12:40.368Z,21.09
2022-08-27T14:15:30.439Z,20.49
2022-08-27T14:17:58.935Z,20.26
2022-08-27T14:20:27.869Z,20.76
2022-08-27T14:22:56.308Z,21.12
2022-08-27T14:25:24.621Z,21.55
2022-08-27T14:27:55.218Z,22.12
2022-08-27T14:30:29.013Z,22.35
2022-08-27T14:33:00.739Z,22.26
2022-08-27T14:35:32.499Z,21.76
2022-08-27T14:38:17.740Z,21.73
2022-08-27T14:40:47.741Z,22.11
2022-08-27T14:43:16.394Z,22.37
2022-08-27T14:45:46.378Z,22.06
2022-08-27T14:48:28.875Z,22.03
2022-08-27T14:50:59.275Z,21.80
2022-08-27T14:53:28.075Z,21.84
2022-08-27T14:55:59.086Z,21.71
2022-08-27T14:58:27.394Z,21.34
2022-08-27T15:00:58.276Z,20.73
2022-08-27T15:03:28.871Z,20.22
2022-08-27T15:05:57.038Z,20.07
2022-08-27T15:08:29.371Z,19.91
2022-08-27T15:11:00.525Z,20.14
2022-08-27T15:13:30.200Z,19.95
2022-08-27T15:15:58.399Z,19.82
2022-08-27T15:18:26.531Z,19.89
2022-08-27T15:20:54.612Z,20.14
2022-08-27T15:23:22.875Z,20.27
2022-08-27T15:25:50.931Z,21.36
2022-08-27T15:28:19.339Z,21.25
2022-08-27T15:30:47.774Z,21.81
2022-08-27T15:33:16.040Z,21.91
2022-08-27T15:35:44.495Z,22.04
2022-08-27T15:38:13.008Z,21.73
2022-08-27T15:40:42.530Z,21.87
2022-08-27T15:43:13.088Z,22.02
2022-08-27T15:45:41.306Z,21.75
2022-08-27T15:48:10.825Z,21.63
2022-08-27T15:50:39.320Z,21.59
2022-08-27T15:53:09.244Z,22.01
2022-08-27T15:55:44.596Z,22.35
2022-08-27T15:58:13.322Z,22.69
2022-08-27T16:00:43.119Z,22.78
2022-08-27T16:03:14.064Z,22.91
2022-08-27T16:05:44.926Z,22.37
2022-08-27T16:08:14.599Z,22.39
2022-08-27T16:10:42.637Z,22.79
2022-08-27T16:13:11.361Z,23.16
2022-08-27T16:15:41.190Z,24.06
2022-08-27T16:18:10.096Z,24.07
2022-08-27T16:20:38.857Z,24.94
2022-08-27T16:23:10.084Z,25.47
2022-08-27T16:25:40.427Z,25.98
2022-08-27T16:28:08.750Z,26.30
2022-08-27T16:30:37.102Z,26.94
2022-08-27T16:33:06.921Z,27.87
2022-08-27T16:35:35.070Z,29.19
2022-08-27T16:38:04.433Z,29.91
2022-08-27T16:40:36.449Z,31.49
2022-08-27T16:43:05.736Z,34.61
2022-08-27T16:45:34.078Z,39.51
2022-08-27T16:48:20.916Z,43.37
2022-08-27T16:50:49.047Z,46.48
2022-08-27T16:53:22.015Z,50.04
2022-08-27T16:55:52.086Z,53.15
2022-08-27T16:58:28.114Z,56.77
2022-08-27T17:00:59.479Z,58.00
2022-08-27T17:03:30.620Z,59.39
2022-08-27T17:05:59.078Z,64.47
2022-08-27T17:08:28.946Z,69.75
2022-08-27T17:10:57.523Z,72.79
2022-08-27T17:13:29.205Z,70.76
2022-08-27T17:15:57.726Z,67.19
2022-08-27T17:18:28.434Z,68.54
2022-08-27T17:20:59.241Z,70.81
2022-08-27T17:23:43.238Z,69.30
2022-08-27T17:26:13.940Z,69.37
2022-08-27T17:28:43.768Z,71.13
2022-08-27T17:31:27.822Z,75.95
2022-08-27T17:33:59.446Z,79.21
2022-08-27T17:36:32.101Z,85.19
2022-08-27T17:39:03.111Z,94.54
2022-08-27T17:41:36.887Z,98.30
2022-08-27T17:44:24.098Z,100.00
2022-08-27T17:46:53.127Z,100.00
2022-08-27T17:49:21.728Z,100.00
2022-08-27T17:51:55.414Z,100.00
2022-08-27T17:54:30.283Z,100.00
2022-08-27T17:56:59.406Z,100.00
2022-08-27T17:59:27.658Z,100.00
2022-08-27T18:01:57.235Z,100.00
2022-08-27T18:04:27.620Z,100.00
2022-08-27T18:06:57.059Z,100.00
2022-08-27T18:09:25.970Z,100.00
2022-08-27T18:11:56.551Z,100.00
2022-08-27T18:14:24.935Z,100.00
2022-08-27T18:16:54.051Z,100.00
2022-08-27T18:19:22.414Z,100.00
2022-08-27T18:21:52.202Z,100.00
2022-08-27T18:24:21.919Z,100.00
2022-08-27T18:26:50.266Z,100.00
2022-08-27T18:29:19.051Z,100.00
2022-08-27T18:31:47.993Z,100.00
2022-08-27T18:34:20.526Z,100.00
2022-08-27T18:36:49.467Z,100.00
2022-08-27T18:39:17.642Z,100.00
2022-08-27T18:41:46.610Z,100.00
2022-08-27T18:44:17.378Z,100.00
2022-08-27T18:46:46.280Z,100.00
2022-08-27T18:49:14.985Z,100.00
2022-08-27T18:51:50.576Z,100.00
2022-08-27T18:54:22.363Z,100.00
2022-08-27T18:56:51.337Z,100.00
2022-08-27T18:59:19.885Z,100.00
2022-08-27T19:01:48.253Z,100.00
2022-08-27T19:04:18.716Z,100.00
2022-08-27T19:06:47.236Z,100.00
2022-08-27T19:09:19.485Z,100.00
2022-08-27T19:11:47.922Z,100.00
2022-08-27T19:14:15.981Z,100.00
2022-08-27T19:16:53.922Z,100.00
2022-08-27T19:19:25.129Z,100.00
2022-08-27T19:21:53.233Z,100.00
2022-08-27T19:24:22.796Z,100.00
2022-08-27T19:26:53.684Z,100.00
2022-08-27T19:29:22.171Z,100.00
2022-08-27T19:31:50.591Z,100.00
2022-08-27T19:34:18.930Z,100.00
2022-08-27T19:36:47.646Z,100.00
2022-08-27T19:39:17.600Z,100.00
2022-08-27T19:41:45.778Z,100.00
2022-08-27T19:44:13.856Z,100.00
2022-08-27T19:46:42.521Z,100.00
2022-08-27T19:49:10.598Z,100.00
2022-08-27T19:51:38.951Z,100.00
2022-08-27T19:54:08.096Z,100.00
2022-08-27T19:56:37.467Z,100.00
2022-08-27T19:59:20.418Z,100.00
2022-08-27T20:01:49.506Z,100.00
2022-08-27T20:04:17.927Z,100.00
2022-08-27T20:06:46.198Z,100.00
2022-08-27T20:09:17.141Z,100.00
2022-08-27T20:11:46.144Z,100.00
2022-08-27T20:14:14.320Z,100.00
2022-08-27T20:16:42.978Z,100.00
2022-08-27T20:19:11.840Z,100.00
2022-08-27T20:21:41.299Z,100.00
2022-08-27T20:24:09.579Z,100.00
2022-08-27T20:26:38.026Z,100.00
2022-08-27T20:29:08.892Z,100.00
2022-08-27T20:31:37.169Z,100.00
2022-08-27T20:34:07.481Z,100.00
2022-08-27T20:36:36.274Z,100.00
2022-08-27T20:39:04.762Z,100.00
2022-08-27T20:41:33.758Z,100.00
2022-08-27T20:44:03.537Z,100.00
2022-08-27T20:46:31.693Z,100.00
2022-08-27T20:48:59.767Z,100.00
2022-08-27T20:51:28.202Z,100.00
2022-08-27T20:53:58.983Z,100.00
2022-08-27T20:56:27.140Z,100.00
2022-08-27T20:59:13.869Z,100.00
2022-08-27T21:01:41.941Z,100.00
2022-08-27T21:04:11.116Z,100.00
2022-08-27T21:06:39.191Z,100.00
2022-08-27T21:09:07.302Z,100.00
2022-08-27T21:11:35.296Z,100.00
2022-08-27T21:14:03.413Z,100.00
2022-08-27T21:16:31.810Z,100.00
2022-08-27T21:19:00.144Z,100.00
2022-08-27T21:21:28.397Z,100.00
2022-08-27T21:23:56.487Z,100.00
2022-08-27T21:26:24.763Z,100.00
2022-08-27T21:28:55.947Z,100.00
2022-08-27T21:31:25.151Z,100.00
2022-08-27T21:33:55.061Z,100.00
2022-08-27T21:36:23.161Z,100.00
2022-08-27T21:38:51.341Z,100.00
2022-08-27T21:41:20.439Z,100.00
2022-08-27T21:43:49.881Z,100.00
2022-08-27T21:46:20.072Z,100.00
2022-08-27T21:48:58.470Z,100.00
2022-08-27T21:51:27.718Z,100.00
2022-08-27T21:53:57.837Z,100.00
2022-08-27T21:56:27.371Z,100.00
2022-08-27T21:58:55.390Z,100.00
2022-08-27T22:01:23.482Z,100.00
2022-08-27T22:03:51.758Z,100.00
2022-08-27T22:06:20.274Z,100.00
2022-08-27T22:08:49.093Z,100.00
2022-08-27T22:11:21.947Z,100.00
2022-08-27T22:13:54.112Z,100.00
2022-08-27T22:16:22.300Z,100.00
2022-08-27T22:18:54.950Z,100.00
2022-08-27T22:21:26.503Z,100.00
2022-08-27T22:23:54.601Z,100.00
2022-08-27T22:26:25.184Z,100.00
2022-08-27T22:28:53.264Z,100.00
2022-08-27T22:31:21.648Z,100.00
2022-08-27T22:33:49.796Z,100.00
2022-08-27T22:36:18.141Z,100.00
2022-08-27T22:38:47.627Z,100.00
2022-08-27T22:41:18.337Z,100.00
2022-08-27T22:43:47.197Z,100.00
2022-08-27T22:46:15.925Z,100.00
2022-08-27T22:48:43.961Z,100.00
2022-08-27T22:51:12.513Z,100.00
2022-08-27T22:53:40.690Z,100.00
2022-08-27T22:56:09.902Z,100.00
2022-08-27T22:58:38.069Z,100.00
2022-08-27T23:01:07.603Z,100.00
2022-08-27T23:03:36.073Z,100.00
2022-08-27T23:06:04.259Z,100.00
2022-08-27T23:08:32.403Z,100.00
2022-08-27T23:11:03.520Z,100.00
2022-08-27T23:13:33.259Z,100.00
2022-08-27T23:16:03.271Z,100.00
2022-08-27T23:18:32.489Z,100.00
2022-08-27T23:21:00.587Z,100.00
2022-08-27T23:23:30.700Z,100.00
2022-08-27T23:26:18.035Z,100.00
2022-08-27T23:28:46.296Z,100.00
2022-08-27T23:31:14.812Z,100.00
2022-08-27T23:33:43.222Z,100.00
2022-08-27T23:36:12.718Z,100.00
2022-08-27T23:38:40.798Z,100.00
2022-08-27T23:41:08.855Z,100.00
2022-08-27T23:43:37.046Z,100.00
2022-08-27T23:46:05.238Z,100.00
2022-08-27T23:48:33.599Z,100.00
2022-08-27T23:51:01.719Z,100.00
2022-08-27T23:53:29.745Z,100.00
2022-08-27T23:55:57.845Z,100.00
2022-08-27T23:58:25.933Z,100.00
